Terminal Aerodrome Forecast
Issued by NWS

Home | Current Version | Previous Version | Text Only | Print | Product List | Glossary On
Versions: 1 2 3 4 5 6 7 8 9 10 11 12 13
000
FTUS42 TJSJ 272300 RRA
TAFISX
TAF
TISX 272348Z 2800/2824 04006KT P6SM FEW030
     FM281300 07013KT P6SM VCSH SCT025 BKN045
     FM282300 06007KT P6SM VCSH SCT030=

USA.gov is the U.S. government's official web portal to all federal, state and local government web resources and services.